Time;durP1;ratioP1;P1;durP2;ratioP2;P2;SDS_P1;SDS_P2;PMS_P1;PMS_P2;Temp;Humidity;BMP_temperature;BMP_pressure;BME280_temperature;BME280_humidity;BME280_pressure;Samples;Min_cycle;Max_cycle;Signal;HPM_P1;HPM_P2
2022/10/06 00:00:15;;;;;;;16.30;2.47;;;;;;;11.79;97.01;102054.50;5135857;27;20023;-44
2022/10/06 00:02:40;;;;;;;13.90;3.72;;;;;;;11.76;96.98;102060.41;5134714;27;20063;-44
2022/10/06 00:05:06;;;;;;;16.52;2.85;;;;;;;11.75;96.81;102065.47;5135585;27;20027;-44
2022/10/06 00:07:31;;;;;;;20.92;3.10;;;;;;;11.73;96.22;102075.75;5135958;27;20489;-43
2022/10/06 00:09:56;;;;;;;24.70;2.83;;;;;;;11.67;96.18;102081.53;5135098;27;20023;-43
2022/10/06 00:12:22;;;;;;;18.75;3.03;;;;;;;11.61;96.50;102085.53;5135629;27;20439;-47
2022/10/06 00:14:47;;;;;;;21.75;3.30;;;;;;;11.67;94.82;102088.38;5135320;27;20083;-46
2022/10/06 00:17:12;;;;;;;16.30;2.72;;;;;;;11.70;93.97;102089.41;5134857;27;20034;-44
2022/10/06 00:19:37;;;;;;;17.83;3.17;;;;;;;11.70;93.94;102091.13;5135244;27;20072;-45
2022/10/06 00:22:03;;;;;;;15.00;2.90;;;;;;;11.70;93.27;102106.63;5135626;27;20030;-47
2022/10/06 00:24:28;;;;;;;20.88;2.80;;;;;;;11.73;92.84;102111.03;5134861;27;20023;-47
2022/10/06 00:26:53;;;;;;;18.67;3.28;;;;;;;11.72;92.81;102110.13;5135111;27;20027;-45
2022/10/06 00:29:18;;;;;;;16.65;3.35;;;;;;;11.64;92.10;102111.50;5135334;27;20446;-44
2022/10/06 00:31:44;;;;;;;21.17;3.03;;;;;;;11.66;91.23;102115.91;5134162;27;20019;-43
2022/10/06 00:34:09;;;;;;;23.00;3.55;;;;;;;11.65;90.94;102123.59;5135155;27;20404;-45
2022/10/06 00:36:35;;;;;;;23.23;3.08;;;;;;;11.58;91.33;102125.03;5133989;27;20023;-43
2022/10/06 00:39:00;;;;;;;16.25;2.92;;;;;;;11.59;90.87;102133.63;5135216;27;20106;-44
2022/10/06 00:41:25;;;;;;;21.95;3.30;;;;;;;11.58;90.72;102137.94;5135154;27;20390;-44
2022/10/06 00:43:55;;;;;;;13.65;3.08;;;;;;;11.57;90.98;102141.31;5134362;27;20023;-45
2022/10/06 00:46:46;;;;;;;15.50;3.53;;;;;;;11.63;90.89;102145.88;5134723;27;20051;-44
2022/10/06 00:49:22;;;;;;;24.95;3.83;;;;;;;11.67;90.53;102148.69;5135091;27;20023;-45
2022/10/06 00:51:54;;;;;;;20.27;3.13;;;;;;;11.65;90.69;102147.72;5133942;27;20024;-44
2022/10/06 00:54:19;;;;;;;17.20;2.97;;;;;;;11.62;91.17;102149.25;5134834;27;20023;-43
2022/10/06 00:56:46;;;;;;;19.52;3.42;;;;;;;11.62;91.83;102147.59;5134389;27;20377;-46
2022/10/06 00:59:14;;;;;;;11.05;2.55;;;;;;;11.62;92.18;102159.59;5134120;27;20064;-44
2022/10/06 01:01:43;;;;;;;20.70;3.15;;;;;;;11.53;93.07;102162.66;5134252;27;20023;-46
2022/10/06 01:04:12;;;;;;;28.00;3.55;;;;;;;11.51;93.38;102159.97;5135096;27;20042;-44
2022/10/06 01:06:48;;;;;;;13.38;2.70;;;;;;;11.48;93.82;102166.72;5133614;27;20023;-43
2022/10/06 01:09:15;;;;;;;19.80;3.13;;;;;;;11.46;94.28;102173.50;5134497;27;20030;-44
2022/10/06 01:11:41;;;;;;;19.90;3.10;;;;;;;11.39;94.44;102174.91;5133704;27;20015;-46
2022/10/06 01:14:07;;;;;;;19.15;3.20;;;;;;;11.34;95.04;102182.41;5134557;27;20015;-43
2022/10/06 01:16:36;;;;;;;17.10;3.08;;;;;;;11.30;95.61;102187.38;5133343;27;20031;-45
2022/10/06 01:19:05;;;;;;;23.08;3.45;;;;;;;11.20;95.98;102192.06;5133643;27;20019;-43
2022/10/06 01:21:38;;;;;;;17.73;3.13;;;;;;;11.19;96.07;102195.47;5134179;27;20050;-43
2022/10/06 01:24:04;;;;;;;25.88;3.70;;;;;;;11.16;96.02;102203.06;5134237;27;20505;-45
2022/10/06 01:26:32;;;;;;;18.95;2.90;;;;;;;11.17;96.17;102199.66;5133457;27;20031;-45
2022/10/06 01:28:58;;;;;;;20.13;3.78;;;;;;;11.14;96.05;102202.13;5134321;27;20083;-44
2022/10/06 01:31:24;;;;;;;24.27;3.25;;;;;;;11.14;95.35;102208.94;5134172;27;20098;-45
2022/10/06 01:33:51;;;;;;;17.30;3.35;;;;;;;11.12;95.09;102211.47;5133266;27;20027;-44
2022/10/06 01:36:16;;;;;;;23.02;3.78;;;;;;;11.09;95.68;102219.06;5133977;27;20023;-44
2022/10/06 01:38:42;;;;;;;20.45;3.13;;;;;;;11.09;94.90;102226.81;5133895;27;20079;-47
2022/10/06 01:41:07;;;;;;;21.55;3.63;;;;;;;11.11;94.58;102232.03;5133415;27;20485;-44
2022/10/06 01:43:32;;;;;;;14.55;3.40;;;;;;;11.11;94.39;102225.16;5133727;27;20033;-44
2022/10/06 01:45:58;;;;;;;13.88;2.88;;;;;;;11.09;94.34;102231.06;5133859;27;20054;-45
2022/10/06 01:48:24;;;;;;;20.67;3.33;;;;;;;11.07;94.36;102228.41;5133028;27;20030;-44
2022/10/06 01:50:49;;;;;;;16.80;3.05;;;;;;;11.06;94.20;102229.22;5133740;27;20023;-46
2022/10/06 01:53:15;;;;;;;18.48;3.42;;;;;;;11.09;93.75;102231.97;5134104;27;20385;-45
2022/10/06 01:55:41;;;;;;;18.50;3.10;;;;;;;11.06;93.80;102234.38;5133043;27;20447;-43
2022/10/06 01:58:07;;;;;;;19.23;2.90;;;;;;;11.07;93.58;102243.91;5133979;28;20035;-42
2022/10/06 02:00:32;;;;;;;16.80;2.83;;;;;;;11.03;93.92;102245.44;5133409;28;20431;-44
2022/10/06 02:02:58;;;;;;;20.73;3.75;;;;;;;11.02;94.00;102245.34;5133052;28;20106;-46
2022/10/06 02:05:23;;;;;;;20.38;3.05;;;;;;;10.99;93.83;102246.09;5133718;28;20027;-45
2022/10/06 02:07:48;;;;;;;19.92;3.72;;;;;;;10.92;94.00;102248.28;5133474;28;20374;-45
2022/10/06 02:10:14;;;;;;;22.67;3.75;;;;;;;10.92;93.87;102251.72;5133428;28;20119;-43
2022/10/06 02:12:39;;;;;;;16.05;3.33;;;;;;;10.91;93.88;102251.66;5133739;28;20339;-43
2022/10/06 02:15:05;;;;;;;16.00;3.05;;;;;;;10.84;94.04;102256.50;5133004;28;20015;-43
2022/10/06 02:17:30;;;;;;;23.40;3.47;;;;;;;10.87;94.12;102254.09;5133409;28;20035;-43
2022/10/06 02:19:55;;;;;;;19.92;3.70;;;;;;;10.83;94.10;102261.59;5133532;28;20051;-45
2022/10/06 02:22:21;;;;;;;19.27;3.42;;;;;;;10.73;94.33;102269.66;5133060;28;20058;-44
2022/10/06 02:24:46;;;;;;;17.40;3.03;;;;;;;10.75;94.21;102279.25;5133554;28;20354;-45
2022/10/06 02:27:11;;;;;;;21.33;3.42;;;;;;;10.73;94.25;102275.72;5134002;27;20031;-46
2022/10/06 02:29:36;;;;;;;19.27;3.55;;;;;;;10.74;94.32;102289.47;5136806;27;20355;-44
2022/10/06 02:32:02;;;;;;;25.98;3.75;;;;;;;10.70;94.10;102296.16;5137626;27;20023;-44
2022/10/06 02:34:28;;;;;;;25.98;4.00;;;;;;;10.70;94.35;102286.75;5137413;27;20035;-43
2022/10/06 02:36:53;;;;;;;22.95;3.42;;;;;;;10.69;94.50;102286.66;5136574;27;20347;-44
2022/10/06 02:39:18;;;;;;;24.88;3.85;;;;;;;10.63;94.33;102294.97;5137580;27;20068;-43
2022/10/06 02:41:43;;;;;;;31.50;3.63;;;;;;;10.57;94.63;102298.91;5137427;27;20482;-44
2022/10/06 02:44:09;;;;;;;20.27;3.92;;;;;;;10.53;94.71;102306.50;5136701;27;20046;-45
2022/10/06 02:46:34;;;;;;;28.33;4.00;;;;;;;10.48;94.95;102315.69;5136888;27;20043;-48
2022/10/06 02:48:59;;;;;;;22.40;3.67;;;;;;;10.46;95.25;102317.28;5137364;27;20035;-46
2022/10/06 02:51:25;;;;;;;25.45;4.70;;;;;;;10.41;95.29;102317.84;5136472;27;20421;-44
2022/10/06 02:53:50;;;;;;;24.00;3.78;;;;;;;10.42;95.65;102324.75;5136808;27;20031;-45
2022/10/06 02:56:24;;;;;;;24.42;4.57;;;;;;;10.40;95.64;102322.09;5137231;27;20023;-48
2022/10/06 02:58:51;;;;;;;29.40;4.10;;;;;;;10.40;95.54;102327.25;5136128;27;20023;-45
2022/10/06 03:01:20;;;;;;;22.87;3.83;;;;;;;10.40;95.70;102327.25;5137120;27;20030;-47
2022/10/06 03:03:45;;;;;;;29.08;3.95;;;;;;;10.34;95.86;102337.19;5136604;27;20373;-44
2022/10/06 03:06:20;;;;;;;19.17;3.47;;;;;;;10.30;96.50;102341.31;5136148;27;20493;-44
2022/10/06 03:09:00;;;;;;;28.33;4.35;;;;;;;10.25;96.81;102341.84;5136840;27;20019;-43
2022/10/06 03:11:27;;;;;;;22.00;4.22;;;;;;;10.24;96.93;102342.63;5136304;27;20027;-43
2022/10/06 03:13:53;;;;;;;23.27;4.22;;;;;;;10.19;97.50;102345.84;5136566;27;20385;-45
2022/10/06 03:16:24;;;;;;;25.23;4.40;;;;;;;10.10;97.84;102353.06;5136631;27;20019;-43
2022/10/06 03:18:51;;;;;;;25.35;4.43;;;;;;;10.10;97.98;102353.06;5135938;27;20019;-45
2022/10/06 03:21:22;;;;;;;30.90;4.90;;;;;;;10.12;98.49;102359.22;5136813;27;20060;-46
2022/10/06 03:23:49;;;;;;;24.42;4.38;;;;;;;10.10;98.72;102358.22;5136434;27;20027;-43
2022/10/06 03:26:18;;;;;;;29.13;4.47;;;;;;;10.08;99.03;102364.97;5135713;27;20489;-43
2022/10/06 03:28:44;;;;;;;30.92;4.15;;;;;;;10.03;99.27;102368.97;5136156;27;20477;-45
2022/10/06 03:31:09;;;;;;;27.50;4.45;;;;;;;10.05;99.40;102364.81;5136453;27;20114;-43
2022/10/06 03:33:35;;;;;;;20.35;4.05;;;;;;;9.98;99.27;102373.91;5135412;27;20051;-45
2022/10/06 03:36:14;;;;;;;26.98;4.15;;;;;;;9.98;99.91;102388.44;5136766;27;20137;-45
2022/10/06 03:38:40;;;;;;;30.98;5.93;;;;;;;9.91;100.00;102387.22;5135434;27;20023;-44
2022/10/06 03:41:12;;;;;;;28.63;4.40;;;;;;;9.91;100.00;102394.06;5135084;27;20019;-44
2022/10/06 03:43:38;;;;;;;23.13;4.55;;;;;;;9.86;100.00;102394.69;5135943;27;20015;-44
2022/10/06 03:46:05;;;;;;;23.05;4.45;;;;;;;9.83;100.00;102404.78;5136187;27;20081;-45
2022/10/06 03:48:33;;;;;;;21.30;3.95;;;;;;;9.76;100.00;102406.94;5135217;27;20019;-44
2022/10/06 03:51:05;;;;;;;22.58;4.30;;;;;;;9.70;100.00;102410.03;5136170;27;20027;-46
2022/10/06 03:53:31;;;;;;;23.92;4.53;;;;;;;9.69;100.00;102403.13;5135184;27;20035;-43
2022/10/06 03:56:00;;;;;;;25.05;4.20;;;;;;;9.64;100.00;102412.25;5135894;27;20440;-46
2022/10/06 03:58:27;;;;;;;28.30;4.25;;;;;;;9.60;100.00;102421.47;5136171;27;20027;-45
2022/10/06 04:01:07;;;;;;;33.15;4.85;;;;;;;9.60;100.00;102420.59;5134912;27;20019;-44
2022/10/06 04:03:33;;;;;;;21.80;4.55;;;;;;;9.53;100.00;102425.38;5135766;27;20030;-45
2022/10/06 04:06:00;;;;;;;21.90;4.40;;;;;;;9.51;100.00;102437.25;5135954;27;20102;-44
2022/10/06 04:08:27;;;;;;;23.20;4.50;;;;;;;9.47;100.00;102443.03;5134881;27;20057;-47
2022/10/06 04:10:53;;;;;;;28.80;5.18;;;;;;;9.47;100.00;102442.16;5135633;27;20024;-44
2022/10/06 04:13:19;;;;;;;34.08;4.70;;;;;;;9.42;100.00;102448.72;5135722;27;20052;-44
2022/10/06 04:15:46;;;;;;;30.02;4.65;;;;;;;9.41;100.00;102449.50;5134623;27;20027;-43
2022/10/06 04:18:12;;;;;;;23.75;4.32;;;;;;;9.39;100.00;102457.13;5135363;27;20106;-43
2022/10/06 04:20:38;;;;;;;36.05;5.32;;;;;;;9.38;100.00;102450.19;5135149;27;20445;-46
2022/10/06 04:23:04;;;;;;;26.10;4.80;;;;;;;9.35;100.00;102462.91;5134896;27;20542;-47
2022/10/06 04:25:30;;;;;;;22.52;4.88;;;;;;;9.33;100.00;102472.19;5135611;27;20019;-44
2022/10/06 04:27:56;;;;;;;27.40;5.05;;;;;;;9.28;100.00;102468.44;5135542;27;20428;-46
2022/10/06 04:30:22;;;;;;;28.17;5.82;;;;;;;9.30;100.00;102472.91;5134657;27;20027;-48
2022/10/06 04:32:47;;;;;;;29.80;5.55;;;;;;;9.22;100.00;102474.13;5135048;27;20080;-45
2022/10/06 04:35:12;;;;;;;24.10;4.88;;;;;;;9.25;100.00;102476.00;5135298;27;20076;-45
2022/10/06 04:37:38;;;;;;;25.35;5.30;;;;;;;9.21;100.00;102474.91;5134085;27;20456;-45
2022/10/06 04:40:04;;;;;;;26.10;4.70;;;;;;;9.14;100.00;102478.78;5135592;27;20027;-44
2022/10/06 04:42:29;;;;;;;23.45;4.60;;;;;;;9.13;100.00;102476.09;5135191;27;20055;-44
2022/10/06 04:44:54;;;;;;;25.48;5.18;;;;;;;9.10;100.00;102488.78;5134126;27;20441;-46
2022/10/06 04:47:20;;;;;;;29.52;4.95;;;;;;;9.05;100.00;102485.91;5134846;27;20043;-45
2022/10/06 04:49:45;;;;;;;28.40;5.18;;;;;;;9.01;100.00;102483.94;5133904;27;20046;-43
2022/10/06 04:52:10;;;;;;;31.20;5.65;;;;;;;8.97;100.00;102497.41;5134815;27;20034;-44
2022/10/06 04:54:35;;;;;;;25.55;4.68;;;;;;;8.99;100.00;102501.00;5134863;27;20106;-45
2022/10/06 04:57:01;;;;;;;32.10;5.07;;;;;;;8.95;100.00;102496.41;5133870;27;20486;-46
2022/10/06 05:00:21;;;;;;;30.45;5.57;;;;;;;8.89;100.00;102505.53;5134844;27;20022;-44
2022/10/06 05:02:12;;;;;;;30.42;5.47;;;;;;;8.88;100.00;102506.34;5134491;27;20550;-43
2022/10/06 05:04:38;;;;;;;29.33;5.93;;;;;;;8.86;100.00;102517.31;5133516;27;20464;-45
2022/10/06 05:07:04;;;;;;;30.17;5.43;;;;;;;8.81;100.00;102511.00;5134862;27;20046;-43
2022/10/06 05:09:30;;;;;;;28.35;5.90;;;;;;;8.76;100.00;102520.97;5134757;27;20038;-45
2022/10/06 05:11:55;;;;;;;26.42;5.65;;;;;;;8.77;100.00;102527.03;5133666;27;20100;-46
2022/10/06 05:14:20;;;;;;;25.73;5.35;;;;;;;8.73;100.00;102534.53;5134624;27;20152;-46
2022/10/06 05:16:45;;;;;;;28.90;5.70;;;;;;;8.71;100.00;102531.00;5134225;27;20045;-44
2022/10/06 05:19:11;;;;;;;31.17;5.70;;;;;;;8.70;100.00;102538.56;5133571;27;20105;-44
2022/10/06 05:21:36;;;;;;;34.33;5.60;;;;;;;8.66;100.00;102546.88;5134235;27;20031;-43
2022/10/06 05:24:02;;;;;;;31.92;5.60;;;;;;;8.63;100.00;102549.28;5134678;27;20023;-44
2022/10/06 05:26:29;;;;;;;34.42;5.90;;;;;;;8.59;100.00;102555.00;5133583;27;20034;-44
2022/10/06 05:28:55;;;;;;;34.85;6.15;;;;;;;8.60;100.00;102554.19;5134208;27;20026;-45
2022/10/06 05:31:30;;;;;;;28.42;5.50;;;;;;;8.53;100.00;102558.94;5134141;27;20390;-43
2022/10/06 05:33:56;;;;;;;35.42;6.45;;;;;;;8.51;100.00;102562.22;5133230;27;20027;-47
2022/10/06 05:36:28;;;;;;;36.38;7.00;;;;;;;8.51;100.00;102567.34;5134248;27;20056;-43
2022/10/06 05:38:54;;;;;;;35.50;6.53;;;;;;;8.47;100.00;102570.47;5133152;27;20026;-46
2022/10/06 05:41:25;;;;;;;33.53;6.40;;;;;;;8.48;100.00;102573.19;5134150;27;20102;-47
2022/10/06 05:43:52;;;;;;;28.67;5.57;;;;;;;8.40;100.00;102580.34;5133802;27;20035;-44
2022/10/06 05:46:19;;;;;;;34.10;6.20;;;;;;;8.45;100.00;102583.19;5133009;27;20043;-46
2022/10/06 05:48:46;;;;;;;35.50;6.90;;;;;;;8.46;100.00;102594.44;5133954;27;20047;-48
2022/10/06 05:51:12;;;;;;;38.47;6.18;;;;;;;8.41;100.00;102588.94;5134010;27;20094;-46
2022/10/06 05:53:37;;;;;;;44.03;6.40;;;;;;;8.44;100.00;102591.69;5132930;27;20122;-47
2022/10/06 05:56:16;;;;;;;36.05;6.28;;;;;;;8.35;100.00;102598.78;5133825;27;20047;-47
2022/10/06 05:58:43;;;;;;;36.58;6.70;;;;;;;8.40;100.00;102602.56;5133677;27;20023;-47
2022/10/06 06:01:15;;;;;;;30.75;6.35;;;;;;;8.37;100.00;102604.94;5133245;28;20460;-45
2022/10/06 06:03:45;;;;;;;33.35;6.38;;;;;;;8.38;100.00;102612.75;5139564;27;20027;-45
2022/10/06 06:06:16;;;;;;;36.10;6.80;;;;;;;8.35;100.00;102611.63;5140717;27;20048;-47
2022/10/06 06:08:41;;;;;;;30.15;6.43;;;;;;;8.36;100.00;102616.88;5139953;27;20029;-48
2022/10/06 06:11:07;;;;;;;36.05;6.93;;;;;;;8.36;100.00;102621.13;5140584;27;20110;-47
2022/10/06 06:13:34;;;;;;;34.65;6.47;;;;;;;8.37;100.00;102626.38;5140243;27;20029;-47
2022/10/06 06:16:00;;;;;;;32.30;6.13;;;;;;;8.36;100.00;102622.00;5139576;27;20478;-46
2022/10/06 06:18:27;;;;;;;40.20;6.50;;;;;;;8.38;100.00;102627.28;5140645;27;20023;-48
2022/10/06 06:20:57;;;;;;;33.15;6.20;;;;;;;8.37;100.00;102631.50;5140315;27;20058;-48
2022/10/06 06:23:22;;;;;;;34.78;6.03;;;;;;;8.38;100.00;102629.84;5139558;27;20474;-47
2022/10/06 06:26:02;;;;;;;47.13;7.18;;;;;;;8.40;100.00;102630.81;5140140;27;20031;-48
2022/10/06 06:28:28;;;;;;;39.15;7.22;;;;;;;8.38;100.00;102637.56;5139849;27;20123;-47
2022/10/06 06:31:06;;;;;;;39.60;6.78;;;;;;;8.41;100.00;102640.31;5140267;27;20094;-48
2022/10/06 06:33:36;;;;;;;34.95;6.78;;;;;;;8.44;100.00;102642.22;5140208;27;20019;-44
2022/10/06 06:36:15;;;;;;;39.50;8.40;;;;;;;8.43;100.00;102640.41;5139545;27;20101;-46
2022/10/06 06:38:41;;;;;;;30.60;6.63;;;;;;;8.46;100.00;102649.25;5140329;27;20026;-48
2022/10/06 06:41:16;;;;;;;37.65;6.78;;;;;;;8.48;100.00;102650.28;5140332;27;20023;-47
2022/10/06 06:43:42;;;;;;;40.25;6.30;;;;;;;8.51;100.00;102655.59;5139225;27;20110;-48
2022/10/06 06:46:08;;;;;;;35.50;7.22;;;;;;;8.56;100.00;102650.78;5140014;27;20082;-45
2022/10/06 06:48:36;;;;;;;32.08;6.68;;;;;;;8.62;100.00;102652.84;5140015;27;20546;-46
2022/10/06 06:51:06;;;;;;;32.78;5.72;;;;;;;8.67;100.00;102656.63;5139335;27;20474;-48
2022/10/06 06:53:32;;;;;;;35.20;6.15;;;;;;;8.72;100.00;102662.97;5140074;27;20057;-46
2022/10/06 06:55:58;;;;;;;40.13;6.55;;;;;;;8.79;100.00;102672.88;5140264;27;20049;-47
2022/10/06 06:58:24;;;;;;;40.20;6.47;;;;;;;8.84;100.00;102671.47;5139417;27;20098;-48
2022/10/06 07:00:49;;;;;;;37.58;6.13;;;;;;;8.90;100.00;102671.88;5139879;27;20106;-48
2022/10/06 07:03:20;;;;;;;32.80;6.18;;;;;;;8.96;100.00;102671.41;5139505;27;20047;-45
2022/10/06 07:05:46;;;;;;;32.63;6.28;;;;;;;9.05;100.00;102686.53;5140017;27;20098;-48
2022/10/06 07:08:18;;;;;;;33.03;5.53;;;;;;;9.15;100.00;102688.91;5140016;27;20503;-48
2022/10/06 07:10:44;;;;;;;30.38;5.80;;;;;;;9.28;100.00;102697.44;5139025;27;20068;-48
2022/10/06 07:13:13;;;;;;;30.92;5.75;;;;;;;9.34;100.00;102703.00;5139895;27;20015;-49
2022/10/06 07:26:40;;;;;;;35.28;6.20;;;;;;;9.91;97.79;102722.03;5135869;27;20035;-46
2022/10/06 07:29:06;;;;;;;35.53;6.47;;;;;;;10.02;97.51;102717.56;5136409;27;20027;-48
2022/10/06 07:31:33;;;;;;;33.95;6.57;;;;;;;10.19;97.40;102728.91;5135313;27;20019;-49
2022/10/06 07:33:59;;;;;;;36.92;7.22;;;;;;;10.19;95.73;102734.94;5136336;27;20453;-48
2022/10/06 07:36:25;;;;;;;33.20;5.38;;;;;;;10.35;95.13;102741.97;5136226;27;20020;-48
2022/10/06 07:38:50;;;;;;;30.85;6.55;;;;;;;10.45;94.54;102743.41;5135176;27;20031;-47
2022/10/06 07:41:15;;;;;;;33.03;6.65;;;;;;;10.64;93.86;102755.72;5136358;27;20481;-49
2022/10/06 07:43:41;;;;;;;31.08;5.93;;;;;;;10.70;92.39;102748.34;5136181;27;20102;-47
2022/10/06 07:46:10;;;;;;;25.73;5.63;;;;;;;10.75;92.51;102752.88;5135379;27;20398;-47
2022/10/06 07:48:36;;;;;;;35.08;6.80;;;;;;;10.87;91.50;102756.19;5135934;27;20035;-48
2022/10/06 07:51:05;;;;;;;30.58;7.30;;;;;;;10.92;90.88;102759.03;5136075;27;20110;-48
2022/10/06 07:53:31;;;;;;;37.90;6.53;;;;;;;11.01;90.53;102762.16;5134876;27;20535;-47
2022/10/06 07:56:04;;;;;;;34.03;7.03;;;;;;;11.18;90.20;102761.47;5136074;27;20035;-48
2022/10/06 07:58:29;;;;;;;38.20;6.40;;;;;;;11.24;89.67;102760.91;5136126;27;20038;-47
2022/10/06 08:00:54;;;;;;;33.05;6.13;;;;;;;11.42;90.87;102770.53;5134860;27;20023;-47
2022/10/06 08:03:20;;;;;;;37.67;6.70;;;;;;;11.50;88.77;102772.75;5135939;27;20458;-44
2022/10/06 08:05:57;;;;;;;30.73;5.90;;;;;;;11.64;88.83;102777.78;5135543;27;20015;-48
2022/10/06 08:08:22;;;;;;;27.27;5.72;;;;;;;11.81;88.11;102776.13;5135195;27;20162;-48
2022/10/06 08:10:52;;;;;;;31.55;5.88;;;;;;;11.88;86.66;102777.38;5135652;27;20486;-47
2022/10/06 08:13:18;;;;;;;39.25;6.32;;;;;;;12.02;86.20;102774.78;5135698;27;20033;-47
2022/10/06 08:15:43;;;;;;;31.10;5.55;;;;;;;12.09;85.75;102782.88;5134644;27;20109;-46
2022/10/06 08:18:08;;;;;;;22.63;5.35;;;;;;;12.14;84.55;102784.88;5135394;27;20407;-48
2022/10/06 08:20:33;;;;;;;31.50;5.43;;;;;;;12.26;84.34;102794.13;5134979;27;20031;-44
2022/10/06 08:22:59;;;;;;;30.48;5.93;;;;;;;12.36;84.10;102793.81;5134996;27;20023;-47
2022/10/06 08:25:24;;;;;;;28.45;5.45;;;;;;;12.46;83.57;102793.50;5135180;27;20020;-47
2022/10/06 08:27:49;;;;;;;25.98;5.55;;;;;;;12.54;82.18;102800.75;5134597;27;20031;-47
2022/10/06 08:30:15;;;;;;;29.63;5.43;;;;;;;12.68;82.92;102802.41;5135426;27;20018;-47
2022/10/06 08:32:42;;;;;;;28.38;5.20;;;;;;;12.71;81.17;102810.31;5135067;27;20023;-48
2022/10/06 08:35:08;;;;;;;27.23;5.30;;;;;;;12.77;81.35;102801.97;5134491;27;20061;-47
2022/10/06 08:37:34;;;;;;;25.43;5.37;;;;;;;12.82;81.14;102806.59;5135031;27;20125;-48
2022/10/06 08:39:59;;;;;;;28.38;6.07;;;;;;;13.01;81.10;102812.69;5135289;27;20418;-47
2022/10/06 08:42:31;;;;;;;29.65;5.47;;;;;;;13.07;79.29;102819.91;5134458;27;20537;-48
2022/10/06 08:45:05;;;;;;;29.88;6.38;;;;;;;13.14;79.91;102816.78;5135050;27;20023;-47
2022/10/06 08:47:35;;;;;;;27.05;4.93;;;;;;;13.23;78.46;102824.16;5134667;27;20030;-44
2022/10/06 08:50:03;;;;;;;27.83;5.05;;;;;;;13.42;78.50;102828.59;5134263;27;20050;-47
2022/10/06 08:52:41;;;;;;;32.15;5.45;;;;;;;13.53;79.25;102829.09;5134863;27;20595;-48
2022/10/06 08:55:06;;;;;;;35.22;5.70;;;;;;;13.65;77.25;102827.13;5134996;27;20108;-48
2022/10/06 08:57:38;;;;;;;37.60;6.30;;;;;;;13.73;76.08;102828.38;5133611;27;20501;-44
2022/10/06 09:00:10;;;;;;;30.80;4.90;;;;;;;13.95;75.74;102835.47;5134730;27;20271;-46
2022/10/06 09:02:40;;;;;;;28.40;5.35;;;;;;;14.00;74.44;102838.28;5134766;27;20019;-48
2022/10/06 09:05:07;;;;;;;25.20;5.47;;;;;;;14.20;74.61;102846.13;5133806;27;20054;-48
2022/10/06 09:08:29;;;;;;;29.97;5.73;;;;;;;14.34;74.09;102839.84;5134412;27;20023;-46
2022/10/06 09:11:21;;;;;;;26.63;5.50;;;;;;;14.49;73.42;102850.94;5050182;28;20032;-49
2022/10/06 09:13:52;;;;;;;22.75;4.63;;;;;;;14.80;72.53;102860.13;5051048;28;20033;-49
2022/10/06 09:16:27;;;;;;;22.70;5.18;;;;;;;14.89;71.46;102861.38;5107579;27;20389;-49
2022/10/06 09:19:12;;;;;;;26.05;4.93;;;;;;;15.01;71.31;102871.41;5133404;27;20047;-47
2022/10/06 09:21:48;;;;;;;27.42;5.18;;;;;;;15.40;69.99;102869.66;5134228;27;20031;-47
2022/10/06 09:24:33;;;;;;;29.35;5.10;;;;;;;15.58;68.87;102869.53;5133647;27;20058;-48
2022/10/06 09:26:59;;;;;;;28.02;4.63;;;;;;;15.83;66.97;102864.44;5134262;27;20049;-49
2022/10/06 09:29:26;;;;;;;31.65;4.85;;;;;;;16.05;65.71;102872.28;5134381;27;20470;-48
2022/10/06 09:31:52;;;;;;;25.02;5.03;;;;;;;16.53;65.37;102873.22;5133346;27;20023;-48
2022/10/06 09:34:50;;;;;;;27.02;4.90;;;;;;;16.69;65.67;102875.56;5134099;27;20359;-47
2022/10/06 09:37:15;;;;;;;24.70;5.43;;;;;;;16.88;61.92;102871.91;5133344;27;20031;-48
2022/10/06 09:39:43;;;;;;;24.30;3.85;;;;;;;16.99;61.07;102864.53;5132782;27;20027;-48
2022/10/06 09:42:08;;;;;;;25.65;4.53;;;;;;;17.23;60.85;102876.63;5134165;27;20023;-48
2022/10/06 09:44:58;;;;;;;26.47;4.43;;;;;;;17.40;60.96;102875.50;5133948;27;20094;-48
2022/10/06 09:47:33;;;;;;;27.23;4.07;;;;;;;17.60;60.53;102880.47;5133617;27;20038;-48
2022/10/06 09:50:10;;;;;;;24.48;4.63;;;;;;;17.76;58.73;102889.69;5133875;27;20028;-47
2022/10/06 09:52:39;;;;;;;31.10;5.35;;;;;;;17.75;57.92;102885.28;5132988;27;20098;-49
2022/10/06 09:55:14;;;;;;;27.40;4.93;;;;;;;17.77;58.85;102886.25;5134010;28;20049;-48
2022/10/06 09:57:54;;;;;;;28.55;4.40;;;;;;;17.44;59.12;102887.78;5133624;27;20035;-48
2022/10/06 10:00:34;;;;;;;22.00;3.97;;;;;;;17.73;58.40;102890.47;5132995;27;20413;-48
2022/10/06 10:03:08;;;;;;;28.70;4.22;;;;;;;17.24;59.13;102886.22;5133990;28;20027;-48
2022/10/06 10:05:37;;;;;;;24.27;4.38;;;;;;;17.14;58.68;102878.91;5133628;28;20060;-49
2022/10/06 10:08:07;;;;;;;26.38;4.10;;;;;;;16.97;58.01;102886.16;5133096;28;20111;-48
2022/10/06 10:10:34;;;;;;;24.95;4.45;;;;;;;16.46;58.39;102883.41;5133547;28;20030;-47
2022/10/06 10:13:00;;;;;;;23.42;3.88;;;;;;;15.96;60.01;102880.59;5133754;28;20077;-48
2022/10/06 10:15:32;;;;;;;26.67;4.50;;;;;;;15.92;61.29;102896.91;5133121;28;20366;-49
2022/10/06 10:18:04;;;;;;;27.27;4.03;;;;;;;16.42;60.26;102891.94;5133799;28;20046;-46
2022/10/06 10:20:33;;;;;;;25.67;4.13;;;;;;;16.81;58.57;102880.34;5132922;28;20091;-48
2022/10/06 10:23:02;;;;;;;25.75;4.10;;;;;;;17.03;57.99;102895.06;5133678;28;20076;-47
2022/10/06 10:25:52;;;;;;;22.55;3.78;;;;;;;17.31;56.58;102888.19;5133575;28;20023;-48
2022/10/06 10:28:35;;;;;;;19.13;3.53;;;;;;;17.41;56.27;102892.88;5132941;28;20031;-47
2022/10/06 10:31:33;;;;;;;23.83;4.15;;;;;;;17.85;56.76;102896.94;5133540;28;20031;-48
2022/10/06 10:34:24;;;;;;;24.42;3.90;;;;;;;18.05;54.17;102895.88;5132531;28;20035;-48
2022/10/06 10:36:56;;;;;;;20.58;4.32;;;;;;;17.97;52.75;102896.47;5133372;28;20027;-48
2022/10/06 10:39:43;;;;;;;19.63;4.07;;;;;;;18.24;54.83;102906.88;5133664;28;20057;-48
2022/10/06 10:42:14;;;;;;;;;;;;;;;18.64;52.47;102904.56;5133033;28;20031;-48
2022/10/06 10:44:47;;;;;;;30.83;3.90;;;;;;;18.36;52.03;102904.66;5133358;28;19911;-48
2022/10/06 10:47:26;;;;;;;22.38;3.90;;;;;;;18.87;52.65;102894.78;5133190;28;20043;-47
2022/10/06 10:50:25;;;;;;;20.98;3.63;;;;;;;19.02;49.65;102905.69;5135572;27;20102;-48
2022/10/06 10:52:56;;;;;;;28.58;4.18;;;;;;;18.82;49.50;102896.38;5137260;27;20109;-46
2022/10/06 10:55:43;;;;;;;18.08;4.65;;;;;;;19.13;49.26;102898.13;5136711;27;20026;-48
2022/10/06 10:58:29;;;;;;;22.50;4.70;;;;;;;18.63;48.37;102895.88;5137184;27;20023;-49
2022/10/06 11:01:24;;;;;;;16.00;4.13;;;;;;;18.74;49.39;102902.25;5136878;27;20023;-48
2022/10/06 11:03:56;;;;;;;20.85;4.45;;;;;;;18.80;48.83;102895.44;5136119;27;20015;-49
2022/10/06 11:06:28;;;;;;;22.83;3.80;;;;;;;19.15;46.53;102903.41;5137137;27;20042;-49
2022/10/06 11:09:04;;;;;;;18.38;4.45;;;;;;;19.23;45.90;102905.38;5136737;27;20030;-49
2022/10/06 11:11:46;;;;;;;19.63;3.83;;;;;;;19.80;46.78;102895.47;5136021;27;20030;-47
2022/10/06 11:14:44;;;;;;;23.15;4.05;;;;;;;20.29;47.10;102907.94;5136796;27;20390;-47
2022/10/06 11:17:18;;;;;;;22.70;4.18;;;;;;;20.66;45.97;102903.50;5135987;27;20039;-48
2022/10/06 11:19:58;;;;;;;18.77;4.68;;;;;;;20.21;46.46;102906.03;5136299;27;20381;-48
2022/10/06 11:22:40;;;;;;;21.83;4.50;;;;;;;19.52;45.49;102913.09;5136846;27;20023;-48
2022/10/06 11:25:33;;;;;;;16.30;3.95;;;;;;;19.74;48.88;102913.63;5136084;27;20027;-50
2022/10/06 11:28:21;;;;;;;23.88;4.75;;;;;;;19.87;46.67;102899.13;5136489;27;20072;-49
2022/10/06 11:31:02;;;;;;;23.27;5.15;;;;;;;20.09;46.84;102897.00;5135722;27;20027;-48
2022/10/06 11:33:49;;;;;;;23.90;4.85;;;;;;;20.64;46.62;102905.19;5136582;27;20381;-47
2022/10/06 11:36:33;;;;;;;20.98;4.43;;;;;;;20.22;45.10;102896.47;5136275;27;20031;-46
2022/10/06 11:39:10;;;;;;;24.83;4.53;;;;;;;20.49;44.42;102895.25;5135913;27;20076;-48